Time;durP1;ratioP1;P1;durP2;ratioP2;P2;SDS_P1;SDS_P2;PMS_P1;PMS_P2;Temp;Humidity;BMP_temperature;BMP_pressure;BME280_temperature;BME280_humidity;BME280_pressure;Samples;Min_cycle;Max_cycle;Signal;HPM_P1;HPM_P2
2023/11/18 00:01:23;;;;;;;;;;;;;;;15.07;44.91;99764.94;5099401;28;1026;-52
2023/11/18 00:03:49;;;;;;;;;;;;;;;15.47;45.57;99767.56;5118706;28;1205;-54
2023/11/18 00:06:14;;;;;;;;;;;;;;;15.43;46.00;99769.25;5119604;28;1049;-54
2023/11/18 00:08:40;;;;;;;;;;;;;;;15.17;45.95;99770.31;5100420;28;1254;-55
2023/11/18 00:11:05;;;;;;;;;;;;;;;15.14;45.30;99779.13;5113734;28;960;-54
2023/11/18 00:13:31;;;;;;;;;;;;;;;15.16;45.32;99787.84;5100806;28;1049;-55
2023/11/18 00:15:57;;;;;;;;;;;;;;;15.76;46.28;99780.41;5099130;28;1898;-53
2023/11/18 00:18:23;;;;;;;;;;;;;;;15.40;46.23;99787.06;5103774;28;1148;-55
2023/11/18 00:20:50;;;;;;;;;;;;;;;15.28;45.61;99775.69;5107829;28;1033;-54
2023/11/18 00:23:17;;;;;;;;;;;;;;;15.23;45.05;99771.09;5100634;28;1137;-53
2023/11/18 00:25:42;;;;;;;;;;;;;;;15.17;44.94;99775.00;5099218;28;1161;-51
2023/11/18 00:28:08;;;;;;;;;;;;;;;15.09;44.80;99786.56;5112004;28;1054;-54
2023/11/18 00:30:33;;;;;;;;;;;;;;;15.04;44.35;99776.47;5099104;28;919;-53
2023/11/18 00:33:00;;;;;;;;;;;;;;;15.40;45.31;99784.34;5098646;28;1221;-54
2023/11/18 00:35:25;;;;;;;;;;;;;;;15.84;46.67;99782.53;5113785;28;1882;-55
2023/11/18 00:37:51;;;;;;;;;;;;;;;15.42;46.86;99786.78;5113917;28;986;-55
2023/11/18 00:40:19;;;;;;;;;;;;;;;15.29;46.16;99778.16;5098727;28;1046;-54
2023/11/18 00:42:47;;;;;;;;;;;;;;;15.16;45.74;99784.31;5085317;28;1561;-54
2023/11/18 00:45:13;;;;;;;;;;;;;;;15.91;46.58;99782.97;5118751;28;1021;-53
2023/11/18 00:47:40;;;;;;;;;;;;;;;15.55;46.70;99772.41;5117503;28;1014;-53
2023/11/18 00:50:08;;;;;;;;;;;;;;;15.30;46.11;99768.81;5118555;28;1116;-53
2023/11/18 00:52:34;;;;;;;;;;;;;;;15.28;45.46;99770.22;5118392;28;1025;-54
2023/11/18 00:55:00;;;;;;;;;;;;;;;15.20;44.84;99766.19;5118832;28;1913;-52
2023/11/18 00:57:26;;;;;;;;;;;;;;;15.89;46.10;99763.25;5105136;28;1192;-54
2023/11/18 00:59:51;;;;;;;;;;;;;;;15.61;46.78;99759.47;5112173;28;890;-56
2023/11/18 01:02:18;;;;;;;;;;;;;;;15.42;46.28;99764.88;5112965;28;1132;-53
2023/11/18 01:04:45;;;;;;;;;;;;;;;15.24;45.85;99750.81;5098430;28;1208;-55
2023/11/18 01:07:11;;;;;;;;;;;;;;;15.19;45.22;99745.38;5098331;28;1213;-56
2023/11/18 01:09:38;;;;;;;;;;;;;;;16.04;46.50;99748.53;5098212;28;1124;-59
2023/11/18 01:12:05;;;;;;;;;;;;;;;15.73;47.25;99741.50;5104315;28;972;-58
2023/11/18 01:14:32;;;;;;;;;;;;;;;15.49;46.54;99737.97;5105050;28;1979;-58
2023/11/18 01:16:58;;;;;;;;;;;;;;;15.39;45.81;99734.22;5105135;28;967;-57
2023/11/18 01:19:24;;;;;;;;;;;;;;;15.17;45.74;99745.69;5104699;28;1295;-55
2023/11/18 01:21:49;;;;;;;;;;;;;;;16.13;46.77;99737.72;5111187;28;1129;-57
2023/11/18 01:24:16;;;;;;;;;;;;;;;15.59;46.83;99735.09;5099590;28;1077;-56
2023/11/18 01:26:41;;;;;;;;;;;;;;;15.49;46.00;99733.28;5104922;28;1208;-56
2023/11/18 01:29:07;;;;;;;;;;;;;;;15.34;45.83;99734.25;5117696;28;1052;-56
2023/11/18 01:31:33;;;;;;;;;;;;;;;15.27;45.11;99727.53;5079697;28;1216;-57
2023/11/18 01:33:59;;;;;;;;;;;;;;;15.22;44.91;99726.47;5092133;28;1634;-55
2023/11/18 01:36:25;;;;;;;;;;;;;;;16.16;46.61;99724.25;5114510;28;1976;-56
2023/11/18 01:38:50;;;;;;;;;;;;;;;15.70;46.69;99709.19;5116975;28;1069;-57
2023/11/18 01:41:16;;;;;;;;;;;;;;;15.50;46.19;99706.69;5110968;28;1098;-58
2023/11/18 01:43:46;;;;;;;;;;;;;;;15.43;45.46;99695.28;5092701;28;1308;-54
2023/11/18 01:46:12;;;;;;;;;;;;;;;16.11;46.68;99693.34;5084330;28;1240;-58
2023/11/18 01:48:38;;;;;;;;;;;;;;;15.59;46.70;99674.00;5092609;28;1059;-57
2023/11/18 01:51:04;;;;;;;;;;;;;;;15.51;46.06;99691.91;5099149;28;1176;-59
2023/11/18 01:53:30;;;;;;;;;;;;;;;15.42;45.53;99682.69;5117468;28;1058;-56
2023/11/18 01:55:55;;;;;;;;;;;;;;;15.31;45.23;99682.00;5095783;28;1918;-58
2023/11/18 01:58:22;;;;;;;;;;;;;;;15.29;44.77;99668.59;5084645;28;1287;-58
2023/11/18 02:00:48;;;;;;;;;;;;;;;15.38;45.12;99669.56;5079692;28;1244;-58
2023/11/18 02:03:14;;;;;;;;;;;;;;;15.71;46.57;99668.88;5082130;28;1061;-58
2023/11/18 02:05:39;;;;;;;;;;;;;;;15.40;46.39;99663.81;5075340;28;1038;-57
2023/11/18 02:08:07;;;;;;;;;;;;;;;15.14;45.78;99644.94;5089476;28;1222;-57
2023/11/18 02:10:33;;;;;;;;;;;;;;;15.29;45.12;99673.25;5080343;28;1082;-58
2023/11/18 02:13:12;;;;;;;;;;;;;;;15.19;45.09;99663.22;5088714;28;2377;-58
2023/11/18 02:15:38;;;;;;;;;;;;;;;15.18;44.69;99675.28;5084466;28;1913;-55
2023/11/18 02:18:04;;;;;;;;;;;;;;;16.13;46.19;99666.41;5079763;28;1570;-57
2023/11/18 02:20:29;;;;;;;;;;;;;;;15.52;46.89;99672.41;5084401;28;1186;-53
2023/11/18 02:22:55;;;;;;;;;;;;;;;15.39;46.12;99673.97;5084419;28;1161;-54
2023/11/18 02:25:21;;;;;;;;;;;;;;;15.26;45.77;99682.06;5086358;28;1102;-52
2023/11/18 02:27:47;;;;;;;;;;;;;;;15.23;45.13;99687.03;5076568;28;1049;-54
2023/11/18 02:30:17;;;;;;;;;;;;;;;15.32;45.57;99700.06;5085795;28;1045;-55
2023/11/18 02:32:42;;;;;;;;;;;;;;;16.06;46.40;99707.91;5079163;28;1196;-54
2023/11/18 02:35:10;;;;;;;;;;;;;;;15.61;46.90;99715.63;5075046;28;1972;-54
2023/11/18 02:37:37;;;;;;;;;;;;;;;15.40;46.27;99719.41;5088470;28;1301;-54
2023/11/18 02:40:08;;;;;;;;;;;;;;;15.35;45.28;99726.88;5076187;28;1169;-54
2023/11/18 02:42:35;;;;;;;;;;;;;;;15.22;45.27;99733.84;5088232;28;966;-50
2023/11/18 02:45:01;;;;;;;;;;;;;;;16.08;46.30;99728.44;5075239;28;1138;-53
2023/11/18 02:47:27;;;;;;;;;;;;;;;15.53;46.59;99739.81;5066243;28;1079;-54
2023/11/18 02:49:56;;;;;;;;;;;;;;;15.42;45.74;99738.31;5084435;28;1205;-51
2023/11/18 02:52:22;;;;;;;;;;;;;;;15.32;45.26;99747.44;5089463;28;1142;-55
2023/11/18 02:54:48;;;;;;;;;;;;;;;15.25;44.77;99738.75;5083219;28;1978;-56
2023/11/18 02:57:13;;;;;;;;;;;;;;;15.23;44.56;99740.97;5100621;28;1062;-56
2023/11/18 02:59:39;;;;;;;;;;;;;;;15.99;46.07;99741.22;5114564;28;1053;-56
2023/11/18 03:02:06;;;;;;;;;;;;;;;15.55;46.19;99737.59;5103072;28;1137;-54
2023/11/18 03:04:31;;;;;;;;;;;;;;;15.34;45.62;99728.78;5116711;28;1062;-54
2023/11/18 03:06:57;;;;;;;;;;;;;;;15.28;45.00;99716.25;5080519;28;1446;-55
2023/11/18 03:09:27;;;;;;;;;;;;;;;15.21;44.90;99715.81;5078288;28;1130;-54
2023/11/18 03:11:53;;;;;;;;;;;;;;;15.17;44.42;99710.06;5103875;28;1105;-51
2023/11/18 03:14:19;;;;;;;;;;;;;;;16.10;46.02;99710.88;5078360;28;1100;-55
2023/11/18 03:16:44;;;;;;;;;;;;;;;15.51;46.61;99702.84;5109375;28;1905;-53
2023/11/18 03:19:10;;;;;;;;;;;;;;;15.36;45.82;99710.16;5107801;28;1065;-53
2023/11/18 03:21:36;;;;;;;;;;;;;;;15.40;46.26;99705.72;5102420;28;1089;-56
2023/11/18 03:24:02;;;;;;;;;;;;;;;15.73;46.52;99722.31;5115526;28;1061;-54
2023/11/18 03:26:27;;;;;;;;;;;;;;;15.40;46.65;99724.91;5115773;28;1093;-54
2023/11/18 03:28:53;;;;;;;;;;;;;;;15.31;45.71;99723.91;5087136;28;1509;-55
2023/11/18 03:31:19;;;;;;;;;;;;;;;15.33;44.95;99723.59;5114514;28;1018;-54
2023/11/18 03:33:45;;;;;;;;;;;;;;;15.23;44.72;99719.06;5086911;28;1057;-52
2023/11/18 03:36:12;;;;;;;;;;;;;;;15.14;44.41;99720.81;5106542;28;1984;-57
2023/11/18 03:38:37;;;;;;;;;;;;;;;15.09;44.46;99718.13;5098078;28;1627;-54
2023/11/18 03:41:03;;;;;;;;;;;;;;;15.03;44.06;99715.41;5097665;28;1610;-54
2023/11/18 03:43:28;;;;;;;;;;;;;;;16.08;46.21;99714.75;5116050;28;1054;-55
2023/11/18 03:45:56;;;;;;;;;;;;;;;15.53;46.72;99706.13;5113561;28;1076;-53
2023/11/18 03:48:22;;;;;;;;;;;;;;;15.32;46.11;99711.84;5114492;28;1078;-53
2023/11/18 03:50:48;;;;;;;;;;;;;;;15.26;45.57;99710.25;5096167;28;1201;-55
2023/11/18 03:53:13;;;;;;;;;;;;;;;15.59;45.85;99704.94;5108752;28;2407;-55
2023/11/18 03:55:40;;;;;;;;;;;;;;;15.81;46.68;99698.13;5084792;28;2280;-56
2023/11/18 03:58:05;;;;;;;;;;;;;;;15.53;46.12;99701.47;5119566;28;2181;-59
2023/11/18 04:00:32;;;;;;;;;;;;;;;15.32;45.87;99706.38;5104367;28;1890;-60
2023/11/18 04:03:01;;;;;;;;;;;;;;;15.39;45.60;99682.16;5104285;28;2033;-57
2023/11/18 04:05:26;;;;;;;;;;;;;;;15.14;45.67;99677.81;5111421;28;2012;-62
2023/11/18 04:07:52;;;;;;;;;;;;;;;16.03;46.61;99665.47;5110687;28;1082;-62
2023/11/18 04:10:18;;;;;;;;;;;;;;;15.52;46.93;99652.44;5100651;28;1093;-62
2023/11/18 04:12:46;;;;;;;;;;;;;;;15.36;46.08;99652.63;5112203;28;879;-61
2023/11/18 04:15:12;;;;;;;;;;;;;;;15.31;45.43;99666.38;5108537;28;1974;-61
2023/11/18 04:17:37;;;;;;;;;;;;;;;15.15;45.25;99667.66;5097697;28;2000;-61
2023/11/18 04:20:08;;;;;;;;;;;;;;;16.07;46.80;99655.53;5114342;28;1144;-61
2023/11/18 04:22:34;;;;;;;;;;;;;;;15.62;46.78;99635.06;5114241;28;1314;-61
2023/11/18 04:24:59;;;;;;;;;;;;;;;15.51;46.35;99623.41;5108739;28;1086;-61
2023/11/18 04:27:25;;;;;;;;;;;;;;;16.10;47.08;99640.41;5095069;28;1190;-61
2023/11/18 04:29:50;;;;;;;;;;;;;;;15.67;46.74;99644.00;5114559;28;1101;-61
2023/11/18 04:32:16;;;;;;;;;;;;;;;15.47;46.37;99631.38;5112099;28;1165;-61
2023/11/18 04:34:42;;;;;;;;;;;;;;;15.40;45.25;99634.50;5089444;28;1979;-61
2023/11/18 04:37:08;;;;;;;;;;;;;;;15.38;44.62;99625.75;5114647;28;1819;-61
2023/11/18 04:39:33;;;;;;;;;;;;;;;15.28;44.42;99623.16;5107765;28;1106;-61
2023/11/18 04:41:59;;;;;;;;;;;;;;;16.05;46.62;99619.38;5118740;28;1041;-57
2023/11/18 04:44:24;;;;;;;;;;;;;;;15.64;46.78;99614.47;5090743;28;1072;-58
2023/11/18 04:46:50;;;;;;;;;;;;;;;15.55;46.67;99629.94;5098245;28;1042;-58
2023/11/18 04:49:17;;;;;;;;;;;;;;;15.88;46.77;99616.34;5113941;28;832;-58
2023/11/18 04:51:43;;;;;;;;;;;;;;;15.59;46.36;99633.72;5104831;28;1134;-60
2023/11/18 04:54:10;;;;;;;;;;;;;;;15.40;45.71;99626.28;5108215;28;1306;-59
2023/11/18 04:56:36;;;;;;;;;;;;;;;15.54;45.36;99611.84;5107873;28;1902;-55
2023/11/18 04:59:02;;;;;;;;;;;;;;;15.33;45.43;99603.91;5097829;28;1031;-56
2023/11/18 05:01:27;;;;;;;;;;;;;;;16.06;46.97;99610.03;5101066;28;856;-50
2023/11/18 05:03:54;;;;;;;;;;;;;;;15.71;46.94;99631.34;5109719;28;1053;-48
2023/11/18 05:06:20;;;;;;;;;;;;;;;15.52;46.32;99630.53;5097337;28;2305;-47
2023/11/18 05:08:45;;;;;;;;;;;;;;;15.38;45.96;99644.13;5113734;28;872;-48
2023/11/18 05:11:12;;;;;;;;;;;;;;;15.30;45.55;99642.03;5106218;28;1094;-53
2023/11/18 05:13:40;;;;;;;;;;;;;;;15.25;45.21;99645.66;5104088;28;1062;-55
2023/11/18 05:16:05;;;;;;;;;;;;;;;15.88;46.39;99641.81;5117926;28;1914;-55
2023/11/18 05:18:35;;;;;;;;;;;;;;;15.59;46.80;99622.75;5103981;28;1165;-55
2023/11/18 05:21:01;;;;;;;;;;;;;;;15.40;46.23;99629.03;5118254;28;1068;-56
2023/11/18 05:23:26;;;;;;;;;;;;;;;15.29;45.63;99618.47;5097598;28;1169;-56
2023/11/18 05:25:52;;;;;;;;;;;;;;;15.77;46.52;99640.31;5115436;28;865;-58
2023/11/18 05:28:17;;;;;;;;;;;;;;;15.57;47.39;99647.72;5097645;28;1494;-56
2023/11/18 05:30:43;;;;;;;;;;;;;;;16.00;46.70;99640.56;5106367;28;1114;-56
2023/11/18 05:33:10;;;;;;;;;;;;;;;15.91;47.08;99640.44;5108339;28;1127;-54
2023/11/18 05:35:36;;;;;;;;;;;;;;;17.08;44.03;99634.06;5102721;28;2309;-54
2023/11/18 05:38:03;;;;;;;;;;;;;;;16.91;44.76;99625.59;5099487;28;1188;-55
2023/11/18 05:40:29;;;;;;;;;;;;;;;16.21;46.38;99621.84;5110605;28;1039;-55
2023/11/18 05:42:55;;;;;;;;;;;;;;;16.75;45.17;99617.63;5097129;28;1114;-52
2023/11/18 05:45:31;;;;;;;;;;;;;;;17.10;44.44;99604.34;5111232;28;1061;-54
2023/11/18 05:47:57;;;;;;;;;;;;;;;16.80;45.21;99602.19;5097503;28;1058;-49
2023/11/18 05:50:24;;;;;;;;;;;;;;;17.91;42.96;99580.13;5115504;28;1069;-53
2023/11/18 05:52:50;;;;;;;;;;;;;;;17.01;44.84;99578.75;5097345;28;1276;-55
2023/11/18 05:55:16;;;;;;;;;;;;;;;16.52;46.02;99585.66;5100205;28;1901;-55
2023/11/18 05:57:44;;;;;;;;;;;;;;;16.35;46.79;99611.75;5106545;28;950;-56
2023/11/18 06:00:12;;;;;;;;;;;;;;;17.55;43.97;99635.88;5111984;28;1153;-57
2023/11/18 06:02:40;;;;;;;;;;;;;;;16.68;45.87;99652.91;5105502;28;1125;-52
2023/11/18 06:05:06;;;;;;;;;;;;;;;16.36;46.93;99629.84;5114608;28;1093;-53
2023/11/18 06:07:31;;;;;;;;;;;;;;;17.06;45.40;99608.81;5105750;28;2514;-53
2023/11/18 06:09:57;;;;;;;;;;;;;;;17.17;44.99;99608.66;5099405;28;979;-53
2023/11/18 06:12:23;;;;;;;;;;;;;;;16.50;46.50;99612.59;5099353;28;1027;-52
2023/11/18 06:14:51;;;;;;;;;;;;;;;16.24;47.40;99615.78;5103226;28;1979;-56
2023/11/18 06:17:18;;;;;;;;;;;;;;;16.62;46.47;99631.31;5106971;28;1116;-59
2023/11/18 06:19:44;;;;;;;;;;;;;;;17.41;44.60;99639.44;5096561;28;1070;-55
2023/11/18 06:22:10;;;;;;;;;;;;;;;16.67;46.48;99637.53;5096666;28;1152;-52
2023/11/18 06:24:38;;;;;;;;;;;;;;;16.42;47.13;99638.78;5097158;28;1051;-54
2023/11/18 06:27:04;;;;;;;;;;;;;;;17.64;44.05;99633.19;5106047;28;1193;-51
2023/11/18 06:29:30;;;;;;;;;;;;;;;16.89;45.93;99630.59;5103026;28;1018;-55
2023/11/18 06:31:55;;;;;;;;;;;;;;;16.50;46.76;99640.84;5106377;28;998;-49
2023/11/18 06:34:21;;;;;;;;;;;;;;;17.02;46.01;99646.25;5099605;28;1046;-56
2023/11/18 06:36:47;;;;;;;;;;;;;;;16.96;45.69;99636.50;5108231;28;2494;-56
2023/11/18 06:39:13;;;;;;;;;;;;;;;16.53;46.75;99644.94;5116147;28;1094;-57
2023/11/18 06:41:47;;;;;;;;;;;;;;;17.15;45.48;99627.34;5106220;28;1053;-53
2023/11/18 06:44:17;;;;;;;;;;;;;;;17.09;45.61;99637.63;5109625;28;1062;-56
2023/11/18 06:46:44;;;;;;;;;;;;;;;16.60;46.73;99657.13;5107659;28;1014;-54
2023/11/18 06:49:16;;;;;;;;;;;;;;;16.31;47.48;99649.13;5104616;28;1068;-55
2023/11/18 06:51:41;;;;;;;;;;;;;;;16.30;47.78;99647.50;5116093;28;1013;-54
2023/11/18 06:54:09;;;;;;;;;;;;;;;17.49;44.73;99657.16;5110568;28;1133;-53
2023/11/18 06:56:38;;;;;;;;;;;;;;;16.72;46.56;99662.16;5108975;28;2222;-53
2023/11/18 06:59:07;;;;;;;;;;;;;;;16.53;47.03;99655.91;5095990;28;1101;-54
2023/11/18 07:01:33;;;;;;;;;;;;;;;17.84;44.22;99656.66;5103846;28;1202;-54
2023/11/18 07:03:58;;;;;;;;;;;;;;;17.01;45.80;99666.63;5102140;28;1110;-55
2023/11/18 07:06:26;;;;;;;;;;;;;;;16.60;46.83;99651.66;5105545;28;2333;-52
2023/11/18 07:08:52;;;;;;;;;;;;;;;16.38;47.67;99635.84;5101247;28;1046;-54
2023/11/18 07:11:18;;;;;;;;;;;;;;;17.43;45.29;99630.88;5110071;28;912;-54
2023/11/18 07:13:44;;;;;;;;;;;;;;;17.01;45.93;99650.16;5099373;28;1060;-49
2023/11/18 07:16:09;;;;;;;;;;;;;;;16.60;47.15;99657.13;5105573;28;1962;-51
2023/11/18 07:18:35;;;;;;;;;;;;;;;16.33;47.73;99648.84;5104442;28;1184;-50
2023/11/18 07:21:03;;;;;;;;;;;;;;;17.12;45.87;99644.44;5113349;28;1029;-50
2023/11/18 07:23:29;;;;;;;;;;;;;;;16.96;46.08;99633.75;5086739;28;1126;-55
2023/11/18 07:25:54;;;;;;;;;;;;;;;16.52;47.49;99635.06;5107022;28;1157;-55
2023/11/18 07:28:20;;;;;;;;;;;;;;;17.51;44.90;99643.09;5115507;28;1006;-53
2023/11/18 07:30:47;;;;;;;;;;;;;;;16.77;46.64;99651.09;5096189;28;993;-55
2023/11/18 07:33:15;;;;;;;;;;;;;;;16.46;47.38;99634.34;5095516;28;1014;-53
2023/11/18 07:35:41;;;;;;;;;;;;;;;17.15;46.21;99622.66;5095269;28;1960;-55
2023/11/18 07:38:07;;;;;;;;;;;;;;;17.31;45.47;99614.13;5109670;28;1029;-55
2023/11/18 07:40:33;;;;;;;;;;;;;;;16.72;46.86;99593.53;5114612;28;1077;-53
2023/11/18 07:43:01;;;;;;;;;;;;;;;16.73;46.99;99597.91;5099260;28;1015;-55
2023/11/18 07:45:28;;;;;;;;;;;;;;;17.77;44.34;99605.69;5099639;28;1049;-55
2023/11/18 07:47:54;;;;;;;;;;;;;;;16.94;46.37;99589.28;5099455;28;1011;-52
2023/11/18 07:50:21;;;;;;;;;;;;;;;16.68;47.00;99581.53;5112194;28;1066;-53
2023/11/18 07:52:48;;;;;;;;;;;;;;;17.67;44.90;99586.69;5119168;28;1093;-52
2023/11/18 07:55:14;;;;;;;;;;;;;;;16.96;46.38;99598.06;5118771;28;1909;-56
2023/11/18 07:57:39;;;;;;;;;;;;;;;16.62;47.17;99595.66;5107642;28;1045;-56
2023/11/18 08:00:09;;;;;;;;;;;;;;;16.43;47.56;99600.06;5099034;28;1105;-55
2023/11/18 08:02:39;;;;;;;;;;;;;;;16.30;48.08;99603.63;5100783;28;861;-56
2023/11/18 08:05:07;;;;;;;;;;;;;;;17.64;44.83;99617.50;5109959;28;1158;-56
2023/11/18 08:07:35;;;;;;;;;;;;;;;16.96;46.20;99614.53;5107780;28;2469;-56
2023/11/18 08:10:04;;;;;;;;;;;;;;;16.59;47.38;99611.63;5087337;28;1222;-57
2023/11/18 08:12:30;;;;;;;;;;;;;;;17.81;44.68;99629.78;5108795;28;1155;-55
2023/11/18 08:14:57;;;;;;;;;;;;;;;16.97;46.40;99638.13;5118294;28;1913;-54
2023/11/18 08:17:22;;;;;;;;;;;;;;;16.66;47.08;99651.56;5119012;28;1066;-55
2023/11/18 08:19:49;;;;;;;;;;;;;;;16.44;47.77;99658.53;5118460;28;983;-53
2023/11/18 08:22:18;;;;;;;;;;;;;;;16.47;47.75;99646.16;5118820;28;1030;-54
2023/11/18 08:24:44;;;;;;;;;;;;;;;17.71;44.79;99634.41;5118989;28;1517;-51
2023/11/18 08:27:11;;;;;;;;;;;;;;;16.90;46.41;99627.53;5109924;28;1077;-53
2023/11/18 08:29:38;;;;;;;;;;;;;;;16.56;47.26;99630.59;5102530;28;938;-53
2023/11/18 08:32:03;;;;;;;;;;;;;;;16.38;47.72;99626.78;5098508;28;1089;-52
2023/11/18 08:34:29;;;;;;;;;;;;;;;17.52;45.38;99653.00;5098138;28;1022;-52
2023/11/18 08:36:54;;;;;;;;;;;;;;;16.85;46.76;99635.03;5113671;28;2249;-54
2023/11/18 08:39:20;;;;;;;;;;;;;;;16.50;47.33;99624.38;5100240;28;938;-52
2023/11/18 08:41:46;;;;;;;;;;;;;;;16.60;47.45;99623.41;5111438;28;1038;-50
2023/11/18 08:44:12;;;;;;;;;;;;;;;17.55;44.93;99613.88;5107636;28;1166;-55
2023/11/18 08:46:39;;;;;;;;;;;;;;;16.79;46.66;99631.56;5104978;28;1161;-57
2023/11/18 08:49:10;;;;;;;;;;;;;;;16.48;47.33;99612.09;5118173;28;1108;-54
2023/11/18 08:51:41;;;;;;;;;;;;;;;16.28;47.99;99605.81;5115097;28;942;-57
2023/11/18 08:54:22;;;;;;;;;;;;;;;17.03;46.34;99590.22;5118373;28;1108;-53
2023/11/18 08:56:50;;;;;;;;;;;;;;;17.52;44.94;99593.31;5100106;28;1917;-55
2023/11/18 08:59:24;;;;;;;;;;;;;;;16.81;46.61;99595.56;5101181;28;1272;-55
2023/11/18 09:01:58;;;;;;;;;;;;;;;16.50;47.57;99605.19;5099247;28;1546;-57
2023/11/18 09:04:25;;;;;;;;;;;;;;;17.17;45.93;99597.66;5105486;28;904;-59
2023/11/18 09:06:54;;;;;;;;;;;;;;;17.20;45.80;99602.53;5107786;28;1816;-58
2023/11/18 09:09:27;;;;;;;;;;;;;;;16.68;47.06;99624.66;5104101;28;1173;-52
2023/11/18 09:11:56;;;;;;;;;;;;;;;16.39;47.70;99640.19;5113340;28;1110;-57
2023/11/18 09:14:23;;;;;;;;;;;;;;;17.45;45.57;99636.91;5111560;28;1558;-57
2023/11/18 09:16:49;;;;;;;;;;;;;;;16.97;46.39;99623.56;5112322;28;1907;-57
2023/11/18 09:19:15;;;;;;;;;;;;;;;16.58;47.41;99622.91;5105956;28;1070;-57
2023/11/18 09:21:42;;;;;;;;;;;;;;;16.30;47.96;99630.22;5116170;28;1014;-54
2023/11/18 09:24:12;;;;;;;;;;;;;;;17.33;45.87;99637.41;5097569;28;1022;-57
2023/11/18 09:26:37;;;;;;;;;;;;;;;16.82;46.80;99633.72;5105507;28;986;-55
2023/11/18 09:29:03;;;;;;;;;;;;;;;16.49;47.76;99635.66;5109310;28;1442;-57
2023/11/18 09:31:29;;;;;;;;;;;;;;;17.02;46.54;99612.50;5098360;28;990;-57
2023/11/18 09:33:57;;;;;;;;;;;;;;;16.99;46.50;99597.44;5103140;28;955;-57
2023/11/18 09:36:23;;;;;;;;;;;;;;;16.54;47.24;99597.19;5105333;28;2443;-56
2023/11/18 09:38:49;;;;;;;;;;;;;;;17.02;46.55;99574.84;5107137;28;1078;-57
2023/11/18 09:41:15;;;;;;;;;;;;;;;17.03;46.20;99560.00;5103230;28;1061;-56
2023/11/18 09:43:47;;;;;;;;;;;;;;;16.57;47.31;99545.22;5107158;28;1033;-58
2023/11/18 09:46:13;;;;;;;;;;;;;;;16.77;47.11;99546.78;5115307;28;1066;-57
2023/11/18 09:48:42;;;;;;;;;;;;;;;17.42;45.46;99552.34;5105914;28;982;-53
2023/11/18 09:51:08;;;;;;;;;;;;;;;16.74;46.80;99552.84;5108277;28;1095;-58
2023/11/18 09:53:37;;;;;;;;;;;;;;;17.24;45.98;99548.59;5099437;28;1102;-60
2023/11/18 09:56:18;;;;;;;;;;;;;;;17.18;45.78;99530.59;5079831;28;1906;-56
2023/11/18 09:58:48;;;;;;;;;;;;;;;16.70;46.93;99534.56;5097126;28;1038;-56
2023/11/18 10:01:18;;;;;;;;;;;;;;;16.80;46.91;99522.56;5104140;28;1082;-56
2023/11/18 10:03:45;;;;;;;;;;;;;;;17.22;45.65;99523.34;5083486;28;938;-59
2023/11/18 10:06:12;;;;;;;;;;;;;;;16.70;47.13;99529.88;5096684;28;2306;-57
2023/11/18 10:08:38;;;;;;;;;;;;;;;17.73;44.54;99518.63;5099570;28;1015;-56
2023/11/18 10:11:09;;;;;;;;;;;;;;;17.06;46.16;99509.16;5087392;28;1425;-57
2023/11/18 10:13:40;;;;;;;;;;;;;;;16.68;47.11;99482.72;5109817;28;986;-56
2023/11/18 10:16:08;;;;;;;;;;;;;;;16.45;47.60;99468.06;5114341;28;1905;-56
2023/11/18 10:18:37;;;;;;;;;;;;;;;16.62;47.36;99470.22;5110597;28;1104;-56
2023/11/18 10:21:11;;;;;;;;;;;;;;;17.72;44.52;99462.81;5096673;28;1109;-55
2023/11/18 10:23:37;;;;;;;;;;;;;;;16.90;46.25;99482.03;5104069;28;960;-56
2023/11/18 10:26:04;;;;;;;;;;;;;;;16.57;47.13;99481.31;5115851;28;1489;-56
2023/11/18 10:28:33;;;;;;;;;;;;;;;17.07;46.27;99491.56;5103584;28;1350;-58
2023/11/18 10:30:59;;;;;;;;;;;;;;;17.07;45.84;99494.31;5110814;28;978;-57
2023/11/18 10:33:30;;;;;;;;;;;;;;;16.64;47.17;99478.97;5105548;28;1026;-56
2023/11/18 10:35:55;;;;;;;;;;;;;;;16.55;47.25;99486.25;5099630;28;1917;-56
2023/11/18 10:38:25;;;;;;;;;;;;;;;17.81;44.53;99484.06;5097699;28;1062;-56
2023/11/18 10:40:55;;;;;;;;;;;;;;;17.04;46.04;99486.66;5107498;28;1042;-51
2023/11/18 10:43:24;;;;;;;;;;;;;;;16.65;46.95;99477.84;5116629;28;1093;-54
2023/11/18 10:45:54;;;;;;;;;;;;;;;16.51;47.49;99482.50;5103454;28;1168;-54
2023/11/18 10:48:20;;;;;;;;;;;;;;;17.72;44.35;99473.81;5084305;28;1052;-56
2023/11/18 10:50:49;;;;;;;;;;;;;;;16.81;46.50;99469.28;5107779;28;1025;-55
2023/11/18 10:53:16;;;;;;;;;;;;;;;16.58;47.04;99463.72;5078429;28;1066;-56
2023/11/18 10:55:42;;;;;;;;;;;;;;;16.76;46.77;99462.00;5109039;28;1905;-55
2023/11/18 10:58:07;;;;;;;;;;;;;;;17.40;45.13;99459.22;5109752;28;1098;-57
2023/11/18 11:00:47;;;;;;;;;;;;;;;16.75;46.63;99447.44;5088922;28;1181;-57
2023/11/18 11:03:14;;;;;;;;;;;;;;;16.40;47.42;99477.22;5105590;28;1342;-56
2023/11/18 11:05:41;;;;;;;;;;;;;;;17.46;45.32;99457.16;5100114;28;2411;-57
2023/11/18 11:08:07;;;;;;;;;;;;;;;17.30;45.29;99489.66;5096011;28;1065;-55
2023/11/18 11:10:33;;;;;;;;;;;;;;;16.75;46.77;99490.56;5105150;28;1352;-57
2023/11/18 11:13:01;;;;;;;;;;;;;;;16.48;47.31;99497.66;5099368;28;994;-58
2023/11/18 11:15:31;;;;;;;;;;;;;;;16.70;47.13;99488.69;5102063;28;1905;-54
2023/11/18 11:18:14;;;;;;;;;;;;;;;17.21;45.63;99510.75;5113462;28;1201;-55
2023/11/18 11:20:48;;;;;;;;;;;;;;;16.64;46.73;99520.13;5099957;28;1046;-56
2023/11/18 11:23:39;;;;;;;;;;;;;;;16.79;46.76;99505.28;5102427;28;1050;-53
2023/11/18 11:26:25;;;;;;;;;;;;;;;17.01;46.16;99510.09;5105578;28;928;-50
2023/11/18 11:29:02;;;;;;;;;;;;;;;16.55;47.07;99510.97;5119464;28;972;-53
2023/11/18 11:31:32;;;;;;;;;;;;;;;16.58;47.40;99499.41;5100217;28;1017;-55
2023/11/18 11:34:02;;;;;;;;;;;;;;;17.62;44.62;99482.31;5090212;28;1023;-56
2023/11/18 11:36:34;;;;;;;;;;;;;;;16.81;46.58;99491.25;5095532;28;1930;-51
2023/11/18 11:39:00;;;;;;;;;;;;;;;16.49;47.32;99476.53;5095018;28;1165;-56
2023/11/18 11:41:26;;;;;;;;;;;;;;;17.26;45.71;99447.44;5116132;28;1085;-53
2023/11/18 11:43:55;;;;;;;;;;;;;;;17.03;45.99;99428.19;5081205;28;1109;-54
2023/11/18 11:46:34;;;;;;;;;;;;;;;16.58;46.93;99428.06;5102948;28;1050;-55
2023/11/18 11:49:01;;;;;;;;;;;;;;;16.93;46.34;99406.47;5090005;28;1249;-56
2023/11/18 11:51:48;;;;;;;;;;;;;;;17.29;45.22;99378.13;5082309;28;1141;-58
2023/11/18 11:54:21;;;;;;;;;;;;;;;16.64;46.75;99391.13;5083043;28;1313;-54
2023/11/18 11:56:49;;;;;;;;;;;;;;;17.34;45.55;99405.50;5119150;28;1909;-49
2023/11/18 11:59:17;;;;;;;;;;;;;;;17.05;46.05;99414.16;5106034;28;1098;-54
2023/11/18 12:01:46;;;;;;;;;;;;;;;16.63;47.01;99429.88;5108676;28;1184;-55
2023/11/18 12:04:20;;;;;;;;;;;;;;;16.41;47.59;99436.88;5108550;28;1015;-52
2023/11/18 12:06:47;;;;;;;;;;;;;;;17.30;45.40;99431.16;5090246;28;2620;-55
2023/11/18 12:09:21;;;;;;;;;;;;;;;17.19;45.56;99422.34;5112502;28;1121;-56
2023/11/18 12:11:48;;;;;;;;;;;;;;;16.67;46.64;99415.22;5112116;28;1109;-54
2023/11/18 12:17:08;;;;;;;;;;;;;;;17.52;44.88;99427.63;5107418;28;1921;-53
2023/11/18 12:19:46;;;;;;;;;;;;;;;16.76;46.43;99429.06;5107190;28;1298;-54
2023/11/18 12:22:17;;;;;;;;;;;;;;;16.76;46.65;99413.38;5102366;28;1428;-52
2023/11/18 12:25:06;;;;;;;;;;;;;;;17.50;45.01;99419.69;5102474;28;949;-57
2023/11/18 12:27:51;;;;;;;;;;;;;;;16.77;46.51;99431.47;5112031;28;1156;-53
2023/11/18 12:30:18;;;;;;;;;;;;;;;16.47;47.21;99421.94;5111854;28;1146;-55
2023/11/18 12:32:59;;;;;;;;;;;;;;;17.09;45.75;99410.47;5107369;28;1053;-56
2023/11/18 12:35:27;;;;;;;;;;;;;;;16.84;46.14;99409.06;5104581;28;1976;-58
2023/11/18 12:38:03;;;;;;;;;;;;;;;16.52;47.11;99405.41;5118423;28;1021;-53
2023/11/18 12:40:36;;;;;;;;;;;;;;;17.45;44.84;99398.63;5087528;28;1117;-55
2023/11/18 12:43:05;;;;;;;;;;;;;;;16.74;46.42;99421.09;5093435;28;1197;-52
2023/11/18 12:45:50;;;;;;;;;;;;;;;16.50;47.22;99426.03;5105997;28;1071;-56
2023/11/18 12:48:16;;;;;;;;;;;;;;;17.08;45.66;99428.09;5110933;28;2424;-50
2023/11/18 12:50:43;;;;;;;;;;;;;;;17.35;44.88;99444.75;5087444;28;2208;-52
2023/11/18 12:53:09;;;;;;;;;;;;;;;16.72;46.55;99456.28;5112302;28;1799;-54
2023/11/18 12:55:35;;;;;;;;;;;;;;;16.46;46.87;99438.72;5111604;28;2406;-53
2023/11/18 12:58:00;;;;;;;;;;;;;;;16.76;46.60;99434.53;5113157;28;1794;-52
2023/11/18 13:00:34;;;;;;;;;;;;;;;17.36;44.96;99460.97;5101907;28;2139;-51
2023/11/18 13:03:00;;;;;;;;;;;;;;;16.69;46.47;99458.81;5098984;28;1890;-49